Time;durP1;ratioP1;P1;durP2;ratioP2;P2;SDS_P1;SDS_P2;PMS_P1;PMS_P2;Temp;Humidity;BMP_temperature;BMP_pressure;BME280_temperature;BME280_humidity;BME280_pressure;Samples;Min_cycle;Max_cycle;Signal;HPM_P1;HPM_P2
2021/12/06 00:01:12;;;;;;;86.97;44.22;;;1.30;99.90;;;;;;2629910;54;20098;-75
2021/12/06 00:03:47;;;;;;;77.55;42.33;;;1.30;99.90;;;;;;2629954;54;20618;-76
2021/12/06 00:06:20;;;;;;;68.22;37.30;;;1.20;99.90;;;;;;2630231;54;20106;-77
2021/12/06 00:08:55;;;;;;;85.65;39.40;;;1.20;99.90;;;;;;2630150;54;20037;-77
2021/12/06 00:11:29;;;;;;;70.38;36.35;;;1.20;99.90;;;;;;2629925;54;20974;-77
2021/12/06 00:14:01;;;;;;;83.68;40.30;;;1.20;99.90;;;;;;2629718;54;20587;-77
2021/12/06 00:16:33;;;;;;;74.57;38.28;;;1.20;99.90;;;;;;2630004;54;20023;-77
2021/12/06 00:19:06;;;;;;;73.43;38.20;;;1.20;99.90;;;;;;2629857;54;20033;-75
2021/12/06 00:21:47;;;;;;;71.13;39.65;;;1.20;99.90;;;;;;2629650;54;20033;-79
2021/12/06 00:24:22;;;;;;;78.55;40.03;;;1.20;99.90;;;;;;2630170;47;20031;-77
2021/12/06 00:26:57;;;;;;;88.43;41.78;;;1.20;99.90;;;;;;2629776;54;20031;-77
2021/12/06 00:29:29;;;;;;;84.22;38.60;;;1.10;99.90;;;;;;2631404;46;20034;-75
2021/12/06 00:32:01;;;;;;;82.30;39.03;;;1.20;99.90;;;;;;2630973;54;20077;-77
2021/12/06 00:34:35;;;;;;;83.47;40.33;;;1.10;99.90;;;;;;2630263;54;20979;-77
2021/12/06 00:37:17;;;;;;;81.95;39.05;;;1.10;99.90;;;;;;2634002;46;20039;-78
2021/12/06 00:39:54;;;;;;;88.07;41.42;;;1.10;99.90;;;;;;2630207;54;20065;-75
2021/12/06 00:42:28;;;;;;;87.72;40.58;;;1.10;99.90;;;;;;2630507;54;20030;-76
2021/12/06 00:45:00;;;;;;;87.65;39.38;;;1.10;99.90;;;;;;2630527;54;20547;-76
2021/12/06 00:47:31;;;;;;;85.97;40.10;;;1.10;99.90;;;;;;2630355;54;20042;-76
2021/12/06 00:50:03;;;;;;;86.28;41.30;;;1.00;99.90;;;;;;2630655;54;20549;-77
2021/12/06 00:52:46;;;;;;;95.70;42.60;;;1.10;99.90;;;;;;2630561;54;20033;-77
2021/12/06 00:55:21;;;;;;;98.93;43.25;;;1.00;99.90;;;;;;2630626;54;20031;-80
2021/12/06 00:57:55;;;;;;;95.22;42.50;;;1.00;99.90;;;;;;2630876;54;20053;-76
2021/12/06 01:00:28;;;;;;;100.32;43.03;;;1.00;99.90;;;;;;2632131;31;20505;-75
2021/12/06 01:03:00;;;;;;;97.85;41.80;;;1.00;99.90;;;;;;2630436;54;20078;-76
2021/12/06 01:05:33;;;;;;;98.40;41.92;;;1.00;99.90;;;;;;2635598;39;20439;-77
2021/12/06 01:08:09;;;;;;;102.32;46.00;;;0.90;99.90;;;;;;2630856;54;20029;-76
2021/12/06 01:10:44;;;;;;;100.50;43.97;;;0.90;99.90;;;;;;2632287;39;20409;-76
2021/12/06 01:13:15;;;;;;;97.57;42.70;;;0.90;99.90;;;;;;2630544;54;20027;-76
2021/12/06 01:15:46;;;;;;;102.85;44.08;;;0.90;99.90;;;;;;2639283;46;20275;-75
2021/12/06 01:18:21;;;;;;;103.85;43.35;;;0.80;99.90;;;;;;2631651;46;20026;-75
2021/12/06 01:20:58;;;;;;;103.47;46.15;;;0.90;99.90;;;;;;2630498;54;20046;-75
2021/12/06 01:23:52;;;;;;;101.68;44.90;;;0.90;99.90;;;;;;2633189;39;20408;-76
2021/12/06 01:26:45;;;;;;;100.45;44.63;;;0.90;99.90;;;;;;2630723;54;20038;-75
2021/12/06 01:29:44;;;;;;;103.07;47.17;;;0.90;99.90;;;;;;2631204;46;20030;-76
2021/12/06 01:32:36;;;;;;;110.55;47.38;;;0.80;99.90;;;;;;2630649;54;20539;-76
2021/12/06 01:40:38;;;;;;;101.47;45.58;;;0.80;99.90;;;;;;2633625;46;20037;-75
2021/12/06 01:43:13;;;;;;;117.75;50.13;;;0.80;99.90;;;;;;2630781;54;20030;-76
2021/12/06 01:45:45;;;;;;;108.15;49.85;;;0.80;99.90;;;;;;2630634;54;20107;-78
2021/12/06 01:48:17;;;;;;;110.80;50.20;;;0.80;99.90;;;;;;2630787;54;20540;-76
2021/12/06 01:50:48;;;;;;;112.63;50.63;;;0.80;99.90;;;;;;2630753;54;20030;-77
2021/12/06 01:53:23;;;;;;;114.57;53.78;;;0.80;99.90;;;;;;2630656;54;20540;-77
2021/12/06 01:55:57;;;;;;;113.18;51.90;;;0.70;99.90;;;;;;2630842;54;20037;-76
2021/12/06 01:58:32;;;;;;;109.18;50.15;;;0.70;99.90;;;;;;2634229;46;20032;-76
2021/12/06 02:01:07;;;;;;;115.20;54.28;;;0.60;99.90;;;;;;2630808;54;20026;-76
2021/12/06 02:03:42;;;;;;;116.10;53.13;;;0.60;99.90;;;;;;2630743;54;20612;-77
2021/12/06 02:06:21;;;;;;;100.57;50.40;;;0.70;99.90;;;;;;2630726;54;20317;-77
2021/12/06 02:08:53;;;;;;;109.57;53.28;;;0.70;99.90;;;;;;2630791;54;20010;-77
2021/12/06 02:11:30;;;;;;;108.80;51.35;;;0.70;99.90;;;;;;2632558;39;20519;-77
2021/12/06 02:14:19;;;;;;;109.28;51.85;;;0.70;99.90;;;;;;2630495;54;20026;-76
2021/12/06 02:17:03;;;;;;;106.82;53.05;;;0.70;99.90;;;;;;2630394;54;20073;-76
2021/12/06 02:19:39;;;;;;;118.97;56.30;;;0.70;99.90;;;;;;2630761;54;20030;-77
2021/12/06 02:22:17;;;;;;;120.78;56.25;;;0.60;99.90;;;;;;2643352;46;20501;-77
2021/12/06 02:24:48;;;;;;;113.72;54.08;;;0.60;99.90;;;;;;2630414;54;20031;-75
2021/12/06 02:27:20;;;;;;;119.78;57.03;;;0.60;99.90;;;;;;2635492;46;20033;-77
2021/12/06 02:29:52;;;;;;;119.95;55.45;;;0.60;99.90;;;;;;2630667;54;20501;-75
2021/12/06 02:32:26;;;;;;;117.05;54.35;;;0.60;99.90;;;;;;2630719;54;20015;-76
2021/12/06 02:35:00;;;;;;;125.53;57.40;;;0.70;99.90;;;;;;2630273;54;20015;-77
2021/12/06 02:37:35;;;;;;;117.57;56.88;;;0.70;99.90;;;;;;2631272;39;20084;-76
2021/12/06 02:40:11;;;;;;;124.50;59.65;;;0.70;99.90;;;;;;2630502;54;20030;-77
2021/12/06 02:42:46;;;;;;;120.43;56.50;;;0.70;99.90;;;;;;2630274;54;20076;-76
2021/12/06 02:45:24;;;;;;;125.82;57.50;;;0.60;99.90;;;;;;2630143;54;20011;-77
2021/12/06 02:47:58;;;;;;;121.07;56.28;;;0.60;99.90;;;;;;2630508;54;20026;-77
2021/12/06 02:50:39;;;;;;;112.00;54.97;;;0.60;99.90;;;;;;2631951;46;20049;-77
2021/12/06 02:53:14;;;;;;;113.93;55.10;;;0.60;99.90;;;;;;2631736;46;20029;-75
2021/12/06 02:55:52;;;;;;;109.93;52.90;;;0.50;99.90;;;;;;2630582;54;20053;-75
2021/12/06 02:58:46;;;;;;;110.13;53.22;;;0.50;99.90;;;;;;2630637;54;20030;-75
2021/12/06 03:01:20;;;;;;;112.32;53.83;;;0.50;99.90;;;;;;2630624;54;20030;-75
2021/12/06 03:04:03;;;;;;;;;;;0.40;99.90;;;;;;2631009;54;20031;-77
2021/12/06 03:06:35;;;;;;;142.85;60.50;;;0.40;99.90;;;;;;2632575;46;19935;-77
2021/12/06 03:09:13;;;;;;;148.70;60.92;;;0.40;99.90;;;;;;2622183;54;20057;31
2021/12/06 03:11:48;;;;;;;151.88;63.40;;;0.40;99.90;;;;;;2631920;46;20018;-76
2021/12/06 03:14:22;;;;;;;160.30;63.85;;;0.30;99.90;;;;;;2630624;54;20040;-76
2021/12/06 03:16:57;;;;;;;148.25;63.13;;;0.30;99.90;;;;;;2631237;47;20038;-77
2021/12/06 03:19:31;;;;;;;144.67;63.00;;;0.30;99.90;;;;;;2630554;54;20010;-76
2021/12/06 03:22:02;;;;;;;151.50;61.95;;;0.30;99.90;;;;;;2630318;54;20027;-75
2021/12/06 03:24:36;;;;;;;135.15;59.15;;;0.30;99.90;;;;;;2630548;54;20022;-76
2021/12/06 03:27:11;;;;;;;131.50;57.58;;;0.30;99.90;;;;;;2630621;54;20026;-77
2021/12/06 03:29:45;;;;;;;140.93;58.58;;;0.30;99.90;;;;;;2630523;54;20018;-76
2021/12/06 03:32:20;;;;;;;138.60;57.50;;;0.30;99.90;;;;;;2630590;54;20030;-77
2021/12/06 03:34:51;;;;;;;124.85;52.10;;;0.30;99.90;;;;;;2630551;54;20016;-75
2021/12/06 03:37:25;;;;;;;121.40;53.88;;;0.30;99.90;;;;;;2630350;54;20026;-77
2021/12/06 03:39:59;;;;;;;120.57;51.42;;;0.30;99.90;;;;;;2630644;54;20062;-79
2021/12/06 03:42:32;;;;;;;131.47;55.10;;;0.20;99.90;;;;;;2630727;54;20011;-76
2021/12/06 03:45:06;;;;;;;132.88;54.10;;;0.20;99.90;;;;;;2635211;46;20011;-75
2021/12/06 03:47:40;;;;;;;;;;;0.20;99.90;;;;;;2630608;54;20026;-75
2021/12/06 03:50:15;;;;;;;117.17;47.87;;;0.20;99.90;;;;;;2627079;54;19963;-75
2021/12/06 03:52:47;;;;;;;108.28;46.65;;;0.20;99.90;;;;;;2637930;39;20873;-76
2021/12/06 03:55:28;;;;;;;108.63;48.75;;;0.20;99.90;;;;;;2630492;54;20513;-79
2021/12/06 03:58:00;;;;;;;114.20;49.67;;;0.20;99.90;;;;;;2630342;54;20015;-75
2021/12/06 04:00:34;;;;;;;130.85;51.65;;;0.20;99.90;;;;;;2630286;54;20070;-76
2021/12/06 04:03:06;;;;;;;130.60;54.65;;;0.20;99.90;;;;;;2631079;54;20010;-76
2021/12/06 04:05:37;;;;;;;113.05;47.90;;;0.20;99.90;;;;;;2631472;54;20022;-76
2021/12/06 04:08:10;;;;;;;119.00;52.15;;;0.20;99.90;;;;;;2626656;54;20014;-75
2021/12/06 04:10:46;;;;;;;108.50;51.17;;;0.20;99.90;;;;;;2631401;54;20529;-75
2021/12/06 04:13:23;;;;;;;112.97;48.90;;;0.20;99.90;;;;;;2632282;39;20445;-76
2021/12/06 04:15:57;;;;;;;108.18;50.15;;;0.20;99.90;;;;;;2630348;54;20033;-77
2021/12/06 04:18:43;;;;;;;108.97;47.25;;;0.20;99.90;;;;;;2630411;54;20073;-76
2021/12/06 04:21:15;;;;;;;98.53;45.97;;;0.20;99.90;;;;;;2633401;39;20441;-77
2021/12/06 04:23:47;;;;;;;114.07;50.25;;;0.20;99.90;;;;;;2630581;54;20146;-75
2021/12/06 04:26:25;;;;;;;104.00;46.38;;;0.20;99.90;;;;;;2630771;46;20033;-77
2021/12/06 04:29:07;;;;;;;110.22;48.08;;;0.20;99.90;;;;;;2630812;54;20037;-76
2021/12/06 04:31:44;;;;;;;114.68;49.75;;;0.30;99.90;;;;;;2630795;54;20034;-78
2021/12/06 04:34:20;;;;;;;119.50;52.88;;;0.30;99.90;;;;;;2631552;46;20026;-78
2021/12/06 04:36:53;;;;;;;132.23;55.22;;;0.30;99.90;;;;;;2630334;54;20125;-75
2021/12/06 04:39:28;;;;;;;133.10;54.67;;;0.20;99.90;;;;;;2630382;46;20030;-75
2021/12/06 04:42:06;;;;;;;136.30;55.77;;;0.20;99.90;;;;;;2630866;39;20503;-77
2021/12/06 04:44:41;;;;;;;129.20;52.60;;;0.20;99.90;;;;;;2631110;39;20619;-75
2021/12/06 04:47:14;;;;;;;136.23;54.45;;;0.20;99.90;;;;;;2630126;54;20073;-78
2021/12/06 04:49:59;;;;;;;133.90;53.80;;;0.20;99.90;;;;;;2630065;54;20022;-77
2021/12/06 04:52:32;;;;;;;135.77;54.05;;;0.20;99.90;;;;;;2630159;47;20571;-76
2021/12/06 04:55:09;;;;;;;132.18;54.83;;;0.20;99.90;;;;;;2630119;54;20505;-75
2021/12/06 04:57:44;;;;;;;122.93;51.20;;;0.20;99.90;;;;;;2630031;54;20090;-78
2021/12/06 05:00:18;;;;;;;114.55;51.13;;;0.20;99.90;;;;;;2630202;54;20029;-76
2021/12/06 05:02:52;;;;;;;127.20;50.50;;;0.20;99.90;;;;;;2630198;54;20037;-77
2021/12/06 05:05:25;;;;;;;133.25;51.63;;;0.20;99.90;;;;;;2629770;54;20061;-75
2021/12/06 05:07:59;;;;;;;114.03;50.38;;;0.20;99.90;;;;;;2630046;54;20011;-77
2021/12/06 05:10:34;;;;;;;110.70;46.90;;;0.20;99.90;;;;;;2630040;46;20505;-77
2021/12/06 05:13:09;;;;;;;107.53;47.10;;;0.20;99.90;;;;;;2630002;54;20030;-76
2021/12/06 05:15:50;;;;;;;104.45;45.58;;;0.20;99.90;;;;;;2632099;46;20010;-76
2021/12/06 05:18:23;;;;;;;105.13;46.15;;;0.20;99.90;;;;;;2634378;46;20014;-78
2021/12/06 05:21:00;;;;;;;98.82;44.40;;;0.20;99.90;;;;;;2629817;54;20026;-80
2021/12/06 05:23:32;;;;;;;102.40;46.08;;;0.20;99.90;;;;;;2629970;54;20031;-76
2021/12/06 05:26:04;;;;;;;99.43;47.03;;;0.20;99.90;;;;;;2629881;54;20502;-77
2021/12/06 05:28:43;;;;;;;106.82;48.83;;;0.20;99.90;;;;;;2630120;54;20026;-78
2021/12/06 05:31:20;;;;;;;84.90;43.60;;;0.20;99.90;;;;;;2629669;54;20011;-78
2021/12/06 05:33:58;;;;;;;102.53;43.15;;;0.20;99.90;;;;;;2629924;54;20035;-77
2021/12/06 05:36:33;;;;;;;93.28;46.17;;;0.30;99.90;;;;;;2630591;46;20030;-75
2021/12/06 05:39:06;;;;;;;91.50;43.33;;;0.20;99.90;;;;;;2629665;54;20027;-76
2021/12/06 05:41:42;;;;;;;88.90;44.38;;;0.20;99.90;;;;;;2630078;54;20029;-76
2021/12/06 05:44:17;;;;;;;80.82;40.70;;;0.20;99.90;;;;;;2630441;39;20421;-75
2021/12/06 05:46:56;;;;;;;88.28;42.10;;;0.20;99.90;;;;;;2630286;54;20533;-76
2021/12/06 05:49:29;;;;;;;90.20;40.40;;;0.20;99.90;;;;;;2629864;54;20034;-77
2021/12/06 05:52:01;;;;;;;83.32;42.13;;;0.20;99.90;;;;;;2630106;54;20026;-76
2021/12/06 05:54:33;;;;;;;87.65;40.65;;;0.30;99.90;;;;;;2629899;54;20030;-75
2021/12/06 05:57:05;;;;;;;90.50;42.67;;;0.30;99.90;;;;;;2630249;54;20026;-77
2021/12/06 05:59:39;;;;;;;84.85;42.33;;;0.30;99.90;;;;;;2629755;54;20121;-75
2021/12/06 06:02:12;;;;;;;86.95;40.75;;;0.30;99.90;;;;;;2631068;46;20513;-78
2021/12/06 06:04:44;;;;;;;92.03;42.50;;;0.30;99.90;;;;;;2629922;54;20037;-76
2021/12/06 06:07:15;;;;;;;73.32;35.15;;;0.30;99.90;;;;;;2630113;54;20036;-77
2021/12/06 06:09:49;;;;;;;77.55;38.05;;;0.30;99.90;;;;;;2630171;54;20027;-77
2021/12/06 06:12:24;;;;;;;81.32;41.67;;;0.30;99.90;;;;;;2629198;39;20445;-77
2021/12/06 06:14:59;;;;;;;81.30;39.15;;;0.30;99.90;;;;;;2629661;54;20034;-77
2021/12/06 06:17:39;;;;;;;79.22;40.58;;;0.30;99.90;;;;;;2630698;46;20037;-76
2021/12/06 06:20:12;;;;;;;84.97;40.38;;;0.30;99.90;;;;;;2629764;54;20033;-77
2021/12/06 06:22:45;;;;;;;87.28;41.65;;;0.30;99.90;;;;;;2630604;54;20030;-77
2021/12/06 06:25:16;;;;;;;91.38;44.03;;;0.30;99.90;;;;;;2630263;54;20074;-76
2021/12/06 06:27:52;;;;;;;82.40;40.08;;;0.30;99.90;;;;;;2634784;31;20483;-77
2021/12/06 06:30:29;;;;;;;83.85;39.70;;;0.30;99.90;;;;;;2630021;54;20145;-77
2021/12/06 06:33:01;;;;;;;88.70;41.60;;;0.30;99.90;;;;;;2629204;54;20127;-76
2021/12/06 06:35:33;;;;;;;81.25;40.03;;;0.30;99.90;;;;;;2627862;54;20041;-77
2021/12/06 06:38:05;;;;;;;85.15;37.55;;;0.40;99.90;;;;;;2630403;46;20031;-75
2021/12/06 06:40:44;;;;;;;91.75;41.78;;;0.40;99.90;;;;;;2630741;54;20014;-76
2021/12/06 06:43:18;;;;;;;83.35;40.33;;;0.40;99.90;;;;;;2632352;46;20022;-76
2021/12/06 06:45:52;;;;;;;86.60;40.33;;;0.40;99.90;;;;;;2630683;54;20084;-75
2021/12/06 06:48:25;;;;;;;93.13;42.15;;;0.40;99.90;;;;;;2630258;54;20042;-77
2021/12/06 06:50:58;;;;;;;84.78;40.08;;;0.40;99.90;;;;;;2630266;54;20035;-76
2021/12/06 06:53:30;;;;;;;84.32;40.47;;;0.50;99.90;;;;;;2629904;54;20042;-76
2021/12/06 06:56:03;;;;;;;87.38;40.05;;;0.50;99.90;;;;;;2629797;54;20015;-77
2021/12/06 06:58:36;;;;;;;87.05;40.17;;;0.50;99.90;;;;;;2629866;46;20098;-77
2021/12/06 07:01:11;;;;;;;90.10;40.58;;;0.50;99.90;;;;;;2630056;54;20030;-77
2021/12/06 07:03:44;;;;;;;92.35;41.90;;;0.50;99.90;;;;;;2622219;54;20030;31
2021/12/06 07:06:16;;;;;;;85.22;39.08;;;0.50;99.90;;;;;;2619926;54;20026;31
2021/12/06 07:08:48;;;;;;;93.32;44.33;;;0.50;99.90;;;;;;2634069;39;20536;-76
2021/12/06 07:11:20;;;;;;;86.90;42.67;;;0.60;99.90;;;;;;2631622;54;20011;-76
2021/12/06 07:13:57;;;;;;;82.72;38.55;;;0.50;99.90;;;;;;2623781;54;20039;-78
2021/12/06 07:16:32;;;;;;;95.03;42.67;;;0.50;99.90;;;;;;2611995;46;20072;31
2021/12/06 07:19:07;;;;;;;96.25;42.47;;;0.50;99.90;;;;;;2628183;54;21892;-73
2021/12/06 07:22:00;;;;;;;103.35;41.67;;;0.50;99.90;;;;;;2613077;54;21518;31
2021/12/06 07:24:32;;;;;;;98.57;42.85;;;0.60;99.90;;;;;;2629680;54;20023;-77
2021/12/06 07:27:04;;;;;;;103.28;42.33;;;0.60;99.90;;;;;;2637471;46;20061;-76
2021/12/06 07:29:36;;;;;;;96.95;42.40;;;0.60;99.90;;;;;;2626744;54;20042;-79
2021/12/06 07:32:14;;;;;;;89.97;40.65;;;0.60;99.90;;;;;;2620261;54;20424;-78
2021/12/06 07:34:47;;;;;;;93.20;40.08;;;0.60;99.90;;;;;;2641142;46;20018;-77
2021/12/06 07:37:22;;;;;;;93.63;40.40;;;0.60;99.90;;;;;;2631096;54;20678;-76
2021/12/06 07:39:54;;;;;;;95.60;39.97;;;0.60;99.90;;;;;;2630923;54;20014;-76
2021/12/06 07:42:29;;;;;;;93.78;43.13;;;0.60;99.90;;;;;;2631058;54;20035;-76
2021/12/06 07:45:01;;;;;;;81.00;37.88;;;0.60;99.90;;;;;;2631003;54;20057;-76
2021/12/06 07:47:37;;;;;;;91.70;39.63;;;0.60;99.90;;;;;;2622196;54;20048;31
2021/12/06 07:50:16;;;;;;;87.38;39.40;;;0.60;99.90;;;;;;2631432;54;20030;-76
2021/12/06 07:52:56;;;;;;;96.72;39.75;;;0.60;99.90;;;;;;2640111;39;20437;-78
2021/12/06 07:55:31;;;;;;;98.38;37.10;;;0.60;99.90;;;;;;2631040;54;20011;-78
2021/12/06 07:58:15;;;;;;;90.55;38.58;;;0.70;99.90;;;;;;2630930;54;20022;-78
2021/12/06 08:00:48;;;;;;;82.95;37.88;;;0.60;99.90;;;;;;2630864;54;20018;-77
2021/12/06 08:03:23;;;;;;;85.18;35.72;;;0.60;99.90;;;;;;2634865;46;20046;-77
2021/12/06 08:05:58;;;;;;;99.03;37.63;;;0.60;99.90;;;;;;2631684;47;20537;-77
2021/12/06 08:08:39;;;;;;;80.60;35.92;;;0.60;99.90;;;;;;2629874;54;20022;-77
2021/12/06 08:11:15;;;;;;;86.68;37.17;;;0.70;99.90;;;;;;2620471;54;20031;-75
2021/12/06 08:13:50;;;;;;;86.53;36.60;;;0.70;99.90;;;;;;2630762;54;20082;-76
2021/12/06 08:16:23;;;;;;;83.68;36.47;;;0.70;99.90;;;;;;2631117;54;20038;-75
2021/12/06 08:18:56;;;;;;;83.38;35.03;;;0.70;99.90;;;;;;2616392;54;20030;31
2021/12/06 08:21:34;;;;;;;88.20;37.60;;;0.70;99.90;;;;;;2614619;54;20014;31
2021/12/06 08:24:08;;;;;;;79.95;35.78;;;0.70;99.90;;;;;;2630297;54;20030;-77
2021/12/06 08:26:41;;;;;;;74.75;35.13;;;0.70;99.90;;;;;;2630076;54;20074;-76
2021/12/06 08:29:15;;;;;;;70.07;33.55;;;0.70;99.90;;;;;;2631193;47;20030;-79
2021/12/06 08:31:48;;;;;;;73.43;32.75;;;0.70;99.90;;;;;;2629821;54;20148;-75
2021/12/06 08:34:29;;;;;;;74.30;34.90;;;0.70;99.90;;;;;;2630375;54;20022;-75
2021/12/06 08:37:09;;;;;;;82.43;34.03;;;0.70;99.90;;;;;;2630934;54;20015;-78
2021/12/06 08:42:19;;;;;;;69.63;33.90;;;0.70;99.90;;;;;;2631189;54;20034;-76
2021/12/06 08:44:51;;;;;;;74.93;32.75;;;0.70;99.90;;;;;;2641040;39;20566;-76
2021/12/06 08:47:24;;;;;;;74.80;34.30;;;0.70;99.90;;;;;;2617796;54;20089;31
2021/12/06 08:49:59;;;;;;;80.82;33.90;;;0.70;99.90;;;;;;2616717;54;20089;31
2021/12/06 08:52:34;;;;;;;81.90;33.58;;;0.70;99.90;;;;;;2631565;54;20094;-75
2021/12/06 08:55:06;;;;;;;73.03;34.42;;;0.70;99.90;;;;;;2628890;54;20076;31
2021/12/06 08:57:41;;;;;;;70.07;32.85;;;0.70;99.90;;;;;;2624177;46;20073;-77
2021/12/06 09:00:16;;;;;;;74.75;34.60;;;0.70;99.90;;;;;;2637079;39;20443;-76
2021/12/06 09:02:48;;;;;;;74.72;33.90;;;0.70;99.90;;;;;;2618617;54;20046;-77
2021/12/06 09:05:26;;;;;;;67.10;34.40;;;0.70;99.90;;;;;;2631605;54;20033;-79
2021/12/06 09:08:04;;;;;;;84.88;38.00;;;0.70;99.90;;;;;;2631406;54;20050;-76
2021/12/06 09:10:39;;;;;;;73.78;35.50;;;0.70;99.90;;;;;;2631313;54;20095;-76
2021/12/06 09:13:10;;;;;;;81.63;36.15;;;0.80;99.90;;;;;;2631210;54;20030;-76
2021/12/06 09:15:43;;;;;;;84.10;39.72;;;0.80;99.90;;;;;;2631481;54;20035;-78
2021/12/06 09:18:14;;;;;;;81.00;39.78;;;0.80;99.90;;;;;;2631199;54;20042;-77
2021/12/06 09:20:48;;;;;;;72.75;37.97;;;0.80;99.90;;;;;;2631107;54;20536;-78
2021/12/06 09:23:24;;;;;;;84.10;39.65;;;0.70;99.90;;;;;;2631227;54;20026;-75
2021/12/06 09:25:55;;;;;;;93.88;42.17;;;0.80;99.90;;;;;;2631230;54;20011;-76
2021/12/06 09:28:28;;;;;;;75.40;39.47;;;0.80;99.90;;;;;;2632395;46;20790;-78
2021/12/06 09:31:01;;;;;;;72.97;38.35;;;0.80;99.90;;;;;;2630964;54;20034;-76
2021/12/06 09:33:37;;;;;;;79.55;37.58;;;0.80;99.90;;;;;;2630905;54;20037;-77
2021/12/06 09:36:13;;;;;;;73.90;38.13;;;0.80;99.90;;;;;;2630721;54;20034;-80
2021/12/06 09:38:51;;;;;;;69.70;36.40;;;0.80;99.90;;;;;;2631297;54;20018;-77
2021/12/06 09:41:28;;;;;;;78.15;37.58;;;0.80;99.90;;;;;;2630112;54;20037;-77
2021/12/06 09:44:06;;;;;;;72.65;38.28;;;0.90;99.90;;;;;;2630793;54;20513;-76
2021/12/06 09:46:39;;;;;;;;;;;0.80;99.90;;;;;;2630954;54;20011;-75
2021/12/06 09:49:11;;;;;;;73.30;38.72;;;0.80;99.90;;;;;;2630489;54;19931;-76
2021/12/06 09:51:50;;;;;;;73.00;37.35;;;0.80;99.90;;;;;;2631685;46;20018;-77
2021/12/06 09:54:29;;;;;;;63.85;34.95;;;0.80;99.90;;;;;;2609043;54;20043;-76
2021/12/06 09:57:01;;;;;;;74.05;37.50;;;0.90;99.90;;;;;;2629849;54;20026;-75
2021/12/06 09:59:39;;;;;;;72.07;37.00;;;0.90;99.90;;;;;;2629430;54;20026;-76
2021/12/06 10:02:13;;;;;;;67.20;36.25;;;0.90;99.90;;;;;;2629655;54;20031;-77
2021/12/06 10:04:48;;;;;;;75.40;38.28;;;0.90;99.90;;;;;;2629074;54;20026;-76
2021/12/06 10:07:19;;;;;;;65.88;36.28;;;0.80;99.90;;;;;;2628435;54;20033;-77
2021/12/06 10:09:57;;;;;;;67.03;36.17;;;0.80;99.90;;;;;;2628785;54;20026;-76
2021/12/06 10:12:31;;;;;;;61.80;35.40;;;0.80;99.90;;;;;;2628436;54;20026;-75
2021/12/06 10:15:03;;;;;;;69.68;37.08;;;0.80;99.90;;;;;;2628845;54;20030;-75
2021/12/06 10:17:36;;;;;;;60.90;33.97;;;0.80;99.90;;;;;;2628745;54;20073;-76
2021/12/06 10:20:10;;;;;;;63.95;33.47;;;0.90;99.90;;;;;;2628583;54;20042;-77
2021/12/06 10:22:40;;;;;;;71.00;36.38;;;0.80;99.90;;;;;;2628259;54;20037;-77
2021/12/06 10:25:16;;;;;;;63.78;36.60;;;0.80;99.90;;;;;;2628574;54;20026;-77
2021/12/06 10:28:05;;;;;;;67.28;36.95;;;0.80;99.90;;;;;;2628326;54;20022;-77
2021/12/06 10:30:37;;;;;;;69.82;37.58;;;0.80;99.90;;;;;;2628557;39;20408;-79
2021/12/06 10:33:15;;;;;;;68.03;37.22;;;0.80;99.90;;;;;;2628227;54;20026;-77
2021/12/06 10:35:48;;;;;;;73.20;38.13;;;0.80;99.90;;;;;;2628477;54;20077;-76
2021/12/06 10:38:24;;;;;;;72.90;38.90;;;0.80;99.90;;;;;;2629423;54;20030;-78
2021/12/06 10:41:02;;;;;;;71.13;38.88;;;0.80;99.90;;;;;;2629440;54;20014;-78
2021/12/06 10:43:42;;;;;;;72.45;39.28;;;0.80;99.90;;;;;;2629578;54;20027;-75
2021/12/06 10:46:15;;;;;;;73.43;37.47;;;0.80;99.90;;;;;;2632523;31;20589;-76
2021/12/06 10:48:46;;;;;;;70.78;37.17;;;0.80;99.90;;;;;;2629753;54;20030;-77
2021/12/06 10:51:23;;;;;;;74.75;39.45;;;0.80;99.90;;;;;;2629736;54;20042;-77
2021/12/06 10:54:05;;;;;;;76.95;38.67;;;0.80;99.90;;;;;;2629949;54;20041;-76
2021/12/06 10:56:46;;;;;;;75.32;41.78;;;0.90;99.90;;;;;;2627294;54;20022;-78
2021/12/06 10:59:23;;;;;;;77.35;41.92;;;0.90;99.90;;;;;;2629175;54;20086;-79
2021/12/06 11:01:57;;;;;;;70.88;38.33;;;0.90;99.90;;;;;;2629448;54;20029;-76
2021/12/06 11:04:33;;;;;;;80.05;41.92;;;0.90;99.90;;;;;;2629044;54;20034;-77
2021/12/06 11:07:13;;;;;;;73.07;40.80;;;0.90;99.90;;;;;;2629192;54;20031;-79
2021/12/06 11:09:52;;;;;;;71.90;40.53;;;0.90;99.90;;;;;;2629172;54;20038;-77
2021/12/06 11:12:35;;;;;;;75.07;41.13;;;0.90;99.90;;;;;;2630121;54;20022;-76
2021/12/06 11:15:16;;;;;;;73.90;40.63;;;0.90;99.90;;;;;;2629488;54;20547;-76
2021/12/06 11:18:02;;;;;;;70.75;38.83;;;1.00;99.90;;;;;;2630014;46;20033;-75
2021/12/06 11:20:37;;;;;;;62.72;36.00;;;1.00;99.90;;;;;;2636214;39;20417;-76
2021/12/06 11:23:18;;;;;;;73.78;39.42;;;1.00;99.90;;;;;;2630414;54;20037;-76
2021/12/06 11:25:57;;;;;;;80.72;40.00;;;1.00;99.90;;;;;;2629813;54;20028;-76
2021/12/06 11:28:34;;;;;;;74.57;38.88;;;1.00;99.90;;;;;;2630144;54;20041;-76
2021/12/06 11:31:08;;;;;;;69.93;39.03;;;1.00;99.90;;;;;;2629618;54;20026;-76
2021/12/06 11:33:41;;;;;;;65.60;37.13;;;1.00;99.90;;;;;;2631452;46;20033;-78
2021/12/06 11:36:22;;;;;;;70.50;39.65;;;1.00;99.90;;;;;;2630032;54;20026;-77
2021/12/06 11:38:58;;;;;;;77.05;39.05;;;1.00;99.90;;;;;;2629725;54;20041;-76
2021/12/06 11:41:32;;;;;;;73.90;39.08;;;1.00;99.90;;;;;;2629638;54;20030;-76
2021/12/06 11:44:19;;;;;;;75.57;38.95;;;1.00;99.90;;;;;;2628621;54;20026;-76
2021/12/06 11:46:57;;;;;;;;;;;1.10;99.90;;;;;;2629825;39;20413;-77
2021/12/06 11:49:34;;;;;;;85.50;39.00;;;1.10;99.90;;;;;;2629711;54;19981;-76
2021/12/06 11:52:08;;;;;;;79.63;39.70;;;1.00;99.90;;;;;;2629929;54;20031;-78
2021/12/06 11:54:45;;;;;;;83.15;41.30;;;1.00;99.90;;;;;;2630692;54;20090;-76
2021/12/06 11:57:21;;;;;;;82.72;39.97;;;1.00;99.90;;;;;;2629854;54;20015;-76
2021/12/06 12:00:01;;;;;;;81.50;40.03;;;1.00;99.90;;;;;;2629366;54;20026;-76
2021/12/06 12:02:43;;;;;;;86.97;38.92;;;1.00;99.90;;;;;;2629140;54;20030;-76
2021/12/06 12:05:33;;;;;;;85.30;40.10;;;1.00;99.90;;;;;;2628976;54;20041;-77
2021/12/06 12:08:12;;;;;;;84.65;38.47;;;1.00;99.90;;;;;;2629717;47;20015;-76
2021/12/06 12:10:54;;;;;;;83.15;40.63;;;0.90;99.90;;;;;;2629946;54;20226;-78
2021/12/06 12:13:28;;;;;;;75.88;35.90;;;0.80;99.90;;;;;;2629933;47;20030;-76
2021/12/06 12:16:06;;;;;;;72.90;36.70;;;0.80;99.90;;;;;;2629521;54;20046;-77
2021/12/06 12:18:45;;;;;;;64.78;35.03;;;0.80;99.90;;;;;;2628670;54;20034;-75
2021/12/06 12:21:19;;;;;;;74.88;36.20;;;0.80;99.90;;;;;;2629809;47;20673;-76
2021/12/06 12:23:54;;;;;;;76.95;36.42;;;0.80;99.90;;;;;;2628825;54;20041;-75
2021/12/06 12:26:29;;;;;;;72.00;35.85;;;0.80;99.90;;;;;;2625645;46;20042;-74
2021/12/06 12:29:12;;;;;;;70.85;36.50;;;0.80;99.90;;;;;;2630098;46;20026;-75
2021/12/06 12:32:01;;;;;;;73.10;35.63;;;0.80;99.90;;;;;;2630167;39;20373;-75
2021/12/06 12:34:37;;;;;;;74.95;36.38;;;0.80;99.90;;;;;;2628554;54;20041;-76
2021/12/06 12:37:15;;;;;;;65.55;35.03;;;0.80;99.90;;;;;;2628883;54;20118;-76
2021/12/06 12:40:03;;;;;;;66.57;33.88;;;0.70;99.90;;;;;;2628586;54;20072;-77
2021/12/06 12:42:59;;;;;;;60.03;32.17;;;0.70;99.90;;;;;;2629216;39;20431;-77
2021/12/06 12:45:37;;;;;;;64.70;34.20;;;0.70;99.90;;;;;;2627742;54;20066;-78
2021/12/06 12:48:20;;;;;;;76.35;35.83;;;0.70;99.90;;;;;;2628082;54;20034;-77
2021/12/06 12:51:08;;;;;;;69.00;34.53;;;0.60;99.90;;;;;;2628286;54;20060;-77
2021/12/06 12:54:02;;;;;;;68.07;34.40;;;0.70;99.90;;;;;;2628012;54;20038;-75
2021/12/06 12:56:34;;;;;;;67.05;34.08;;;0.60;99.90;;;;;;2627476;54;20034;-74
2021/12/06 12:59:22;;;;;;;74.63;34.83;;;0.60;99.90;;;;;;2628396;54;20031;-76
2021/12/06 13:02:19;;;;;;;69.93;34.95;;;0.60;99.90;;;;;;2628983;54;20509;-77
2021/12/06 13:04:54;;;;;;;71.18;34.13;;;0.60;99.90;;;;;;2628147;39;20413;-75
2021/12/06 13:07:33;;;;;;;69.25;33.97;;;0.60;99.90;;;;;;2629217;54;20030;-75
2021/12/06 13:10:30;;;;;;;67.20;33.22;;;0.60;99.90;;;;;;2632025;46;20026;-76
2021/12/06 13:13:04;;;;;;;70.95;35.65;;;0.60;99.90;;;;;;2631225;46;20512;-77
2021/12/06 13:15:48;;;;;;;69.00;34.17;;;0.50;99.90;;;;;;2631819;39;20615;-78
2021/12/06 13:18:53;;;;;;;68.45;33.40;;;0.60;99.90;;;;;;2631152;54;20030;-77
2021/12/06 13:21:26;;;;;;;65.00;33.42;;;0.50;99.90;;;;;;2623578;46;20030;-76
2021/12/06 13:24:24;;;;;;;66.75;34.45;;;0.60;99.90;;;;;;2633916;39;20448;-76
2021/12/06 13:26:56;;;;;;;69.40;36.42;;;0.60;99.90;;;;;;2631358;54;20018;-76
2021/12/06 13:29:30;;;;;;;75.85;37.72;;;0.60;99.90;;;;;;2631154;46;20098;-76